Latest Coastal Weather Observations for Hopetoun North

IDW60701

Issued at 10:03 pm WST Tuesday 6 December 2016 (issued every 10 minutes, with the page automatically refreshed every 10 minutes)

About coastal observations | Map of coastal stations | Coastal observations for WA | Marine services | Other Formats
Station Details ID: 009961 Name: HOPETOUN NORTH Lat: -33.93 Lon: 120.13 Height: 26.0 m
Data from the previous 72 hours. | See also: Recent months at Hopetoun North
Date/Time
WST
Temp
°C
Wind Pressure Rain since
9am
mm
Weather Cloud Vis
km
Sea
Height
m
Swell
Dir  Spd
kts
Gust
kts
hPa Trend Height
m
Period
s
Dir
06/10:00pm 15.4 ESE 4 6 1012.0 - 0.0 - - - - - - -
06/09:30pm 15.7 SE 4 6 1012.3 - 0.0 - - - - - - -
06/09:00pm 15.9 SE 5 7 1012.4 - 0.0 - - - - - - -
06/08:30pm 16.2 SSE 6 8 1012.4 - 0.0 - - - - - - -
06/08:00pm 16.2 SSE 5 7 1012.3 - 0.0 - - - - - - -
06/07:30pm 16.5 SSE 6 8 1012.2 - 0.0 - - - - - - -
06/07:00pm 17.1 S 7 11 1012.0 - 0.0 - - - - - - -
06/06:30pm 17.8 S 8 10 1011.9 - 0.0 - - - - - - -
06/06:00pm 18.4 SSE 9 12 1011.7 - 0.0 - - - - - - -
06/05:30pm 19.1 S 9 13 1011.6 - 0.0 - - - - - - -
06/05:00pm 19.6 SSE 10 13 1011.3 - 0.0 - - - - - - -
06/04:30pm 19.8 SSE 9 13 1011.2 - 0.0 - - - - - - -
06/04:00pm 20.6 SE 9 11 1011.0 - 0.0 - - - - - - -
06/03:30pm 20.3 SSE 12 15 1011.4 - 0.0 - - - - - - -
06/03:00pm 20.9 SSE 12 16 1011.4 - 0.0 - - - - - - -
06/02:30pm 20.9 SE 11 14 1011.7 - 0.0 - - - - - - -
06/02:00pm 20.9 SSE 12 16 1012.1 - 0.0 - - - - - - -
06/01:30pm 20.8 SSE 13 18 1012.1 - 0.0 - - - - - - -
06/01:00pm 21.7 SSE 13 16 1012.4 - 0.0 - - - - - - -
06/12:30pm 21.9 SSE 11 14 1012.8 - 0.0 - - - - - - -
06/12:00pm 21.9 SSE 11 15 1013.4 - 0.0 - - - - - - -
06/11:30am 21.8 S 11 15 1014.0 - 0.0 - - - - - - -
06/11:00am 21.2 S 12 15 1014.5 - 0.0 - - - - - - -
06/10:30am 21.7 S 9 12 1014.9 - 0.0 - - - - - - -
06/10:00am 20.6 S 8 11 1015.3 - 0.0 - - - - - - -
06/09:30am 20.8 S 8 11 1015.6 - 0.0 - - - - - - -
06/09:00am 20.5 S 7 10 1015.8 - 0.0 - - - - - - -
06/08:30am 20.2 SW 2 5 1016.5 - 0.0 - - - - - - -
06/08:00am 19.1 W 2 5 1016.7 - 0.0 - - - - - - -
06/07:30am 18.2 NW 2 4 1016.9 - 0.0 - - - - - - -
06/07:00am 17.7 N 4 6 1016.9 - 0.0 - - - - - - -
06/06:30am 16.4 NNW 4 5 1016.8 - 0.0 - - - - - - -
06/06:00am 14.7 NNW 3 4 1016.6 - 0.0 - - - - - - -
06/05:30am 13.5 NNW 3 4 1016.4 - 0.0 - - - - - - -
06/05:00am 12.7 NNW 4 5 1016.1 - 0.0 - - - - - - -
06/04:30am 12.9 NNW 3 5 1016.0 - 0.0 - - - - - - -
06/04:00am 13.1 N 4 5 1015.7 - 0.0 - - - - - - -
06/03:30am 13.3 N 3 4 1015.9 - 0.0 - - - - - - -
06/03:00am 14.7 CALM 0 0 1016.0 - 0.0 - - - - - - -
06/02:30am 14.4 CALM 0 0 1016.0 - 0.0 - - - - - - -
06/02:00am 14.9 CALM 0 1 1015.9 - 0.0 - - - - - - -
06/01:30am 15.7 SSW 4 6 1016.0 - 0.0 - - - - - - -
06/01:00am 16.4 SSW 7 9 1016.0 - 0.0 - - - - - - -
06/12:30am 16.7 S 7 10 1015.9 - 0.0 - - - - - - -
06/12:00am 16.6 SSW 7 9 1016.0 - 0.0 - - - - - - -
 
Date/Time
WST
Temp
°C
Wind Pressure Rain since
9am
mm
Weather Cloud Vis
km
Sea
Height
m
Swell
Dir  Spd
kts
Gust
kts
hPa Trend Height
m
Period
s
Dir
05/11:30pm 16.1 S 4 9 1015.9 - 0.0 - - - - - - -
05/11:00pm 17.1 S 6 11 1016.0 - 0.0 - - - - - - -
05/10:30pm 17.5 S 5 9 1016.0 - 0.0 - - - - - - -
05/10:00pm 17.4 S 6 9 1016.0 - 0.0 - - - - - - -
05/09:30pm 17.0 SSE 6 8 1015.8 - 0.0 - - - - - - -
05/09:00pm 17.5 S 7 9 1015.8 - 0.0 - - - - - - -
05/08:30pm 16.9 S 6 7 1015.6 - 0.0 - - - - - - -
05/08:00pm 16.8 S 6 10 1015.5 - 0.0 - - - - - - -
05/07:30pm 16.9 S 7 11 1015.1 - 0.0 - - - - - - -
05/07:00pm 17.0 SSE 7 9 1014.7 - 0.0 - - - - - - -
05/06:30pm 17.9 SSE 6 9 1014.2 - 0.0 - - - - - - -
05/06:00pm 18.6 SSE 8 11 1013.9 - 0.0 - - - - - - -
05/05:30pm 19.1 SSE 10 13 1013.5 - 0.0 - - - - - - -
05/05:00pm 19.5 SSE 10 14 1013.3 - 0.0 - - - - - - -
05/04:30pm 20.1 SSE 10 14 1012.6 - 0.0 - - - - - - -
05/04:00pm 20.8 SSE 11 15 1012.4 - 0.0 - - - - - - -
05/03:30pm 20.7 SSE 11 16 1012.1 - 0.0 - - - - - - -
05/03:00pm 20.6 SSE 11 15 1012.2 - 0.0 - - - - - - -
05/02:30pm 20.8 SE 11 15 1012.3 - 0.0 - - - - - - -
05/02:00pm 20.6 SE 11 14 1012.1 - 0.0 - - - - - - -
05/01:30pm 20.9 SSE 11 15 1012.1 - 0.0 - - - - - - -
05/01:00pm 20.1 SE 11 16 1012.2 - 0.0 - - - - - - -
05/12:30pm 20.1 SE 11 15 1012.5 - 0.0 - - - - - - -
05/12:00pm 20.4 SSE 11 15 1012.7 - 0.0 - - - - - - -
05/11:30am 19.2 SSE 10 13 1012.8 - 0.0 - - - - - - -
05/11:00am 20.2 S 10 14 1013.2 - 0.0 - - - - - - -
05/10:30am 19.7 S 9 13 1013.5 - 0.0 - - - - - - -
05/10:00am 19.1 S 8 12 1013.9 - 0.0 - - - - - - -
05/09:30am 19.1 S 7 11 1014.1 - 0.0 - - - - - - -
05/09:00am 19.1 NW 3 5 1014.2 - 0.0 - - - - - - -
05/08:30am 18.8 N 3 8 1014.7 - 0.0 - - - - - - -
05/08:00am 18.0 N 4 7 1014.9 - 0.0 - - - - - - -
05/07:30am 16.5 NNE 6 9 1015.3 - 0.0 - - - - - - -
05/07:00am 15.6 NNE 5 7 1015.4 - 0.0 - - - - - - -
05/06:30am 13.6 N 4 6 1015.4 - 0.0 - - - - - - -
05/06:00am 12.9 N 5 7 1015.3 - 0.0 - - - - - - -
05/05:30am 12.0 NNE 4 5 1015.1 - 0.0 - - - - - - -
05/05:00am 10.6 N 2 3 1015.0 - 0.0 - - - - - - -
05/04:30am 10.0 N 3 4 1014.7 - 0.0 - - - - - - -
05/04:00am 9.4 NNE 2 4 1014.3 - 0.0 - - - - - - -
05/03:30am 9.6 NE 4 5 1013.8 - 0.0 - - - - - - -
05/03:00am 10.2 NNE 4 4 1013.9 - 0.0 - - - - - - -
05/02:30am 10.1 NE 2 3 1013.5 - 0.0 - - - - - - -
05/02:00am 12.0 NE 2 3 1013.5 - 0.0 - - - - - - -
05/01:30am 12.4 ENE 3 4 1013.5 - 0.0 - - - - - - -
05/01:00am 13.6 ESE 5 8 1013.6 - 0.0 - - - - - - -
05/12:30am 13.5 SSE 5 6 1013.8 - 0.0 - - - - - - -
05/12:00am 13.8 SE 5 7 1013.9 - 0.0 - - - - - - -
 
Date/Time
WST
Temp
°C
Wind Pressure Rain since
9am
mm
Weather Cloud Vis
km
Sea
Height
m
Swell
Dir  Spd
kts
Gust
kts
hPa Trend Height
m
Period
s
Dir
04/11:30pm 14.1 SE 5 7 1014.1 - 0.0 - - - - - - -
04/11:00pm 14.1 SE 5 7 1014.3 - 0.0 - - - - - - -
04/10:30pm 14.4 SE 5 7 1014.5 - 0.0 - - - - - - -
04/10:00pm 14.7 SE 5 8 1014.5 - 0.0 - - - - - - -
04/09:30pm 14.5 SE 5 8 1014.9 - 0.0 - - - - - - -
04/09:00pm 14.8 SE 6 8 1014.9 - 0.0 - - - - - - -
04/08:30pm 14.6 SSE 5 8 1014.9 - 0.0 - - - - - - -
04/08:00pm 14.9 SSE 6 8 1014.8 - 0.0 - - - - - - -
04/07:30pm 15.1 S 6 8 1014.6 - 0.0 - - - - - - -
04/07:00pm 15.5 SSE 8 12 1014.4 - 0.0 - - - - - - -
04/06:30pm 15.9 S 8 12 1014.3 - 0.0 - - - - - - -
04/06:00pm 16.8 S 9 12 1014.0 - 0.0 - - - - - - -
04/05:30pm 17.4 S 9 14 1013.8 - 0.0 - - - - - - -
04/05:00pm 18.1 S 10 15 1013.4 - 0.0 - - - - - - -
04/04:30pm 18.4 S 10 14 1013.2 - 0.0 - - - - - - -
04/04:00pm 18.8 S 11 15 1013.2 - 0.0 - - - - - - -
04/03:30pm 18.8 SSW 12 16 1013.1 - 0.0 - - - - - - -
04/03:00pm 19.6 S 12 18 1013.0 - 0.0 - - - - - - -
04/02:30pm 19.1 S 13 17 1012.9 - 0.0 - - - - - - -
04/02:00pm 19.7 S 13 16 1012.9 - 0.0 - - - - - - -
04/01:30pm 19.4 SSW 14 19 1013.0 - 0.0 - - - - - - -
04/01:00pm 19.3 SSW 15 20 1013.2 - 0.0 - - - - - - -
04/12:30pm 19.7 SSW 13 18 1013.1 - 0.0 - - - - - - -
04/12:00pm 19.8 SSW 13 17 1013.2 - 0.0 - - - - - - -
04/11:30am 20.2 SSW 12 17 1013.4 - 0.0 - - - - - - -
04/11:00am 19.9 SW 13 18 1013.6 - 0.0 - - - - - - -
04/10:30am 19.2 SW 11 16 1013.6 - 0.0 - - - - - - -
04/10:00am 19.5 SW 10 15 1013.6 - 0.0 - - - - - - -
04/09:30am 19.3 SW 11 15 1013.5 - 0.0 - - - - - - -
04/09:00am 18.6 WSW 10 15 1013.3 - 0.0 - - - - - - -
04/08:30am 17.4 WSW 9 16 1013.3 - 0.0 - - - - - - -
04/08:00am 17.4 WSW 10 15 1013.1 - 0.0 - - - - - - -
04/07:30am 17.3 WSW 10 14 1012.9 - 0.0 - - - - - - -
04/07:00am 16.4 W 10 14 1012.5 - 0.0 - - - - - - -
04/06:30am 15.2 W 9 14 1012.0 - 0.0 - - - - - - -
04/06:00am 15.3 W 9 13 1011.5 - 0.0 - - - - - - -
04/05:30am 14.2 W 10 13 1011.3 - 0.0 - - - - - - -
04/05:00am 14.0 W 9 13 1010.9 - 0.0 - - - - - - -
04/04:30am 14.0 W 9 13 1010.4 - 0.0 - - - - - - -
04/04:00am 14.8 WSW 12 19 1010.0 - 0.0 - - - - - - -
04/03:30am 15.1 WSW 15 22 1009.7 - 0.0 - - - - - - -
04/03:00am 15.2 WSW 14 20 1009.4 - 0.0 - - - - - - -
04/02:30am 15.2 WSW 14 21 1009.1 - 0.0 - - - - - - -
04/02:00am 15.9 WSW 15 25 1008.8 - 0.0 - - - - - - -
04/01:37am 16.3 WSW 15 25 1008.5 - 0.0 - - - - - - -
04/01:30am 16.6 WSW 16 24 1008.5 - 0.0 - - - - - - -
04/01:03am 16.7 SW 18 29 1008.1 - 0.0 - - - - - - -
04/01:00am 16.7 SW 18 27 1008.0 - 0.0 - - - - - - -
04/12:53am 16.8 SW 16 27 1007.9 - 0.0 - - - - - - -
04/12:30am 17.0 WSW 17 25 1007.6 - 0.0 - - - - - - -
04/12:00am 17.3 WSW 17 25 1007.5 - 0.0 - - - - - - -
 
Date/Time
WST
Temp
°C
Wind Pressure Rain since
9am
mm
Weather Cloud Vis
km
Sea
Height
m
Swell
Dir  Spd
kts
Gust
kts
hPa Trend Height
m
Period
s
Dir
03/11:30pm 17.7 WSW 18 27 1007.2 - 0.0 - - - - - - -
03/11:14pm 17.8 SW 19 29 1007.1 - 0.0 - - - - - - -
03/11:00pm 18.0 SW 19 27 1006.9 - 0.0 - - - - - - -
03/10:30pm 18.1 SW 18 25 1006.6 - 0.0 - - - - - - -

Other Formats:

Comma delimited format used in spreadsheet applications
http://www.bom.gov.au/fwo/IDW60701/IDW60701.95635.axf

JavaScript Object Notation format (JSON) in row-major order
http://www.bom.gov.au/fwo/IDW60701/IDW60701.95635.json